^^
Meteo Knjazevac Station Historical Data
Daily Summary for August 08, 2022 Units:  English    Metric   Both
Daily Weekly Monthly Yearly Custom
  High: Low: Average:
Temperature: 92.9 °F 64 °F 77.7 °F
Dew Point: 72.6 °F 61.6 °F 65.8 °F
Humidity: 98.8% 39.9% 71%
Wind Speed: 15mph 0mph 4.6mph
Wind Gust: 18mph - -
Wind- - SSE
Pressure: 30.12 in 30.01 in -
Precipitation: 0.00 in    
Historical Graphs
 
 
Tabular Data for August 08, 2022
Time Temperature Dew Point Pressure Wind Wind Speed Wind Gust Humidity Rainfall Rate (Hourly) solar Conditions
00:03 68.5 °F 66.4 °F 30.06 in ESE 2.3 mph 2 mph 93% 0.00 in 0 W/m2
00:09 68.4 °F 66.3 °F 30.07 in ESE 2.8 mph 3 mph 93% 0.00 in 0 W/m2
00:14 68.3 °F 66.2 °F 30.07 in SE 3.5 mph 3.1 mph 93% 0.00 in 0 W/m2
00:19 68.2 °F 66.1 °F 30.06 in South 2.9 mph 5 mph 93% 0.00 in 0 W/m2
00:24 68.2 °F 66.1 °F 30.06 in WSW 2 mph 3 mph 93% 0.00 in 0 W/m2
00:29 68.2 °F 66 °F 30.07 in WNW 1.7 mph 2 mph 92.6% 0.00 in 0 W/m2
00:34 68.2 °F 66.1 °F 30.07 in West 2.3 mph 2 mph 93% 0.00 in 0 W/m2
00:39 68.1 °F 66 °F 30.06 in SW 2 mph 2 mph 93% 0.00 in 0 W/m2
00:44 67.9 °F 65.9 °F 30.07 in SW 2 mph 2 mph 93.2% 0.00 in 0 W/m2
00:49 67.8 °F 65.9 °F 30.07 in SE 2.1 mph 2 mph 93.7% 0.00 in 0 W/m2
00:54 67.7 °F 65.6 °F 30.07 in SSE 1.3 mph 2 mph 93% 0.00 in 0 W/m2
00:59 67.6 °F 65.8 °F 30.07 in NNW 0.7 mph 2 mph 93.8% 0.00 in 0 W/m2
01:04 67.5 °F 65.7 °F 30.07 in NNE 2.1 mph 2 mph 94% 0.00 in 0 W/m2
01:09 67.3 °F 65.5 °F 30.07 in ENE 1 mph 3 mph 94% 0.00 in 0 W/m2
01:14 67.3 °F 65.5 °F 30.07 in NNE 2 mph 2 mph 94% 0.00 in 0 W/m2
01:19 67.2 °F 65.4 °F 30.07 in West 2.3 mph 2 mph 94% 0.00 in 0 W/m2
01:24 66.9 °F 65.2 °F 30.07 in SW 1.7 mph 2 mph 94.3% 0.00 in 0 W/m2
01:29 66.9 °F 65.2 °F 30.07 in WSW 0.9 mph 3 mph 94.3% 0.00 in 0 W/m2
01:34 66.8 °F 65.3 °F 30.07 in North 0.4 mph 2 mph 95% 0.00 in 0 W/m2
01:39 66.7 °F 65.3 °F 30.06 in NNW 1.9 mph 1.3 mph 95% 0.00 in 0 W/m2
01:44 66.6 °F 65.1 °F 30.07 in NW 1.6 mph 2 mph 95% 0.00 in 0 W/m2
01:49 66.5 °F 65 °F 30.07 in NNE 1 mph 2 mph 95% 0.00 in 0 W/m2
01:54 66.4 °F 64.9 °F 30.07 in NNE 1.8 mph 2 mph 95% 0.00 in 0 W/m2
01:59 66.4 °F 64.9 °F 30.07 in NNE 1.3 mph 2 mph 95% 0.00 in 0 W/m2
02:04 66.2 °F 64.7 °F 30.07 in NNE 1.2 mph 1.3 mph 95% 0.00 in 0 W/m2
02:09 66.1 °F 64.6 °F 30.07 in NNE 0.8 mph 2 mph 95% 0.00 in 0 W/m2
02:14 66 °F 64.5 °F 30.07 in North 0.8 mph 1 mph 95% 0.00 in 0 W/m2
02:19 66 °F 64.5 °F 30.07 in SW 1.3 mph 1 mph 95% 0.00 in 0 W/m2
02:24 66 °F 64.5 °F 30.07 in SW 0.7 mph 2 mph 95% 0.00 in 0 W/m2
02:29 65.9 °F 64.4 °F 30.07 in SW 1.4 mph 2 mph 95% 0.00 in 0 W/m2
02:34 65.7 °F 64.2 °F 30.07 in WSW 1.8 mph 1.3 mph 95% 0.00 in 0 W/m2
02:39 65.7 °F 64.2 °F 30.07 in West 0.4 mph 2 mph 95% 0.00 in 0 W/m2
02:44 65.5 °F 64 °F 30.07 in WNW 0.6 mph 1 mph 95% 0.00 in 0 W/m2
02:49 65.5 °F 64 °F 30.07 in West 0.5 mph 0.2 mph 95.1% 0.00 in 0 W/m2
02:54 65.4 °F 64 °F 30.07 in West 0.8 mph 1 mph 95.2% 0.00 in 0 W/m2
02:59 65.3 °F 63.8 °F 30.07 in West 0.1 mph 1 mph 95% 0.00 in 0 W/m2
03:04 65.1 °F 63.7 °F 30.07 in WSW 1.9 mph 1.6 mph 95% 0.00 in 0 W/m2
03:09 65.1 °F 63.7 °F 30.07 in WSW 2.3 mph 2 mph 95% 0.00 in 0 W/m2
03:14 64.9 °F 63.5 °F 30.07 in West 2.1 mph 2 mph 95% 0.00 in 0 W/m2
03:19 64.8 °F 63.4 °F 30.07 in West 2.2 mph 2 mph 95% 0.00 in 0 W/m2
03:24 64.7 °F 63.3 °F 30.07 in West 1.6 mph 2 mph 95.3% 0.00 in 0 W/m2
03:29 64.6 °F 63.4 °F 30.07 in West 1.5 mph 2 mph 96% 0.00 in 0 W/m2
03:34 64.6 °F 63.4 °F 30.08 in West 3 mph 3 mph 96% 0.00 in 0 W/m2
03:39 64.4 °F 63.2 °F 30.08 in WNW 2.9 mph 3 mph 96% 0.00 in 0 W/m2
03:44 64.6 °F 63.4 °F 30.07 in West 1.7 mph 3 mph 96% 0.00 in 0 W/m2
03:49 64.6 °F 63.4 °F 30.07 in West 1 mph 2 mph 96% 0.00 in 0 W/m2
03:54 64.6 °F 63.4 °F 30.07 in WNW 0.2 mph 1 mph 96% 0.00 in 0 W/m2
03:59 64.6 °F 63.4 °F 30.07 in Calm     96% 0.00 in 0 W/m2
04:04 64.6 °F 63.4 °F 30.07 in WSW 0.7 mph 0.2 mph 96% 0.00 in 0 W/m2
04:09 64.6 °F 63.7 °F 30.08 in NW 2.9 mph 2.9 mph 97.1% 0.00 in 0 W/m2
04:14 64.8 °F 64.2 °F 30.07 in NNE 1.9 mph 4 mph 98% 0.00 in 0 W/m2
04:19 64.8 °F 64.2 °F 30.07 in NNE 0.7 mph 2 mph 98% 0.00 in 0 W/m2
04:24 64.8 °F 63.8 °F 30.07 in North 0.3 mph 2 mph 96.7% 0.00 in 0 W/m2
04:29 64.8 °F 63.6 °F 30.08 in North 1.1 mph 1.1 mph 96% 0.00 in 0 W/m2
04:34 64.6 °F 63.4 °F 30.08 in NW 2.2 mph 2 mph 96% 0.00 in 0 W/m2
04:39 64.6 °F 63.4 °F 30.08 in WNW 1.6 mph 2 mph 96% 0.00 in 0 W/m2
04:44 64.4 °F 63.2 °F 30.08 in NW 1.8 mph 1.6 mph 96% 0.00 in 0 W/m2
04:49 64.3 °F 63.1 °F 30.08 in NW 1.7 mph 2 mph 96% 0.00 in 0 W/m2
04:54 64.2 °F 63.1 °F 30.08 in West 2.3 mph 2 mph 96.1% 0.00 in 0 W/m2
04:59 64.2 °F 63.6 °F 30.08 in West 2.3 mph 2 mph 98% 0.00 in 0 W/m2
05:04 64.1 °F 63.5 °F 30.08 in WNW 2.5 mph 2 mph 98% 0.00 in 0 W/m2
05:09 64.1 °F 63.5 °F 30.08 in WNW 2 mph 3 mph 98% 0.00 in 0 W/m2
05:14 64.2 °F 63.6 °F 30.08 in WNW 0.4 mph 2 mph 98% 0.00 in 0 W/m2
05:19 64.2 °F 63.7 °F 30.08 in Calm   1 mph 98.4% 0.00 in 0 W/m2
05:24 64.2 °F 63.8 °F 30.08 in North 0.4 mph   98.8% 0.00 in 1 W/m2
05:29 64.2 °F 63.4 °F 30.08 in North 0.2 mph 1 mph 97.3% 0.00 in 3 W/m2
05:34 64.2 °F 63.1 °F 30.08 in North 0.5 mph 0.2 mph 96% 0.00 in 4 W/m2
05:39 64.1 °F 63 °F 30.08 in NNW 0.3 mph 1 mph 96% 0.00 in 7 W/m2
05:44 64 °F 62.9 °F 30.09 in WNW 0.4 mph 1 mph 96% 0.00 in 9 W/m2
05:49 64 °F 62.9 °F 30.09 in Calm   1 mph 96% 0.00 in 13 W/m2
05:54 64 °F 62.9 °F 30.09 in WSW 1 mph 0.9 mph 96% 0.00 in 17 W/m2
05:59 64 °F 63.1 °F 30.09 in West 1.3 mph 2 mph 96.7% 0.00 in 20 W/m2
06:04 64 °F 63.5 °F 30.09 in West 1.6 mph 2 mph 98% 0.00 in 22 W/m2
06:09 64 °F 63.5 °F 30.09 in WNW 1.5 mph 1.3 mph 98% 0.00 in 25 W/m2
06:14 64 °F 63.5 °F 30.09 in WNW 1.6 mph 2 mph 98% 0.00 in 29 W/m2
06:19 64 °F 63.5 °F 30.09 in NW 0.9 mph 2 mph 98% 0.00 in 34 W/m2
06:24 64.1 °F 63.5 °F 30.09 in Calm   1 mph 98% 0.00 in 38 W/m2
06:29 64.2 °F 63.6 °F 30.09 in NW 0.8 mph 0.7 mph 98% 0.00 in 41 W/m2
06:34 64.2 °F 63.6 °F 30.09 in WNW 1.8 mph 2 mph 98% 0.00 in 45 W/m2
06:39 64.3 °F 63.7 °F 30.09 in WSW 1 mph 2 mph 98% 0.00 in 47 W/m2
06:44 64.3 °F 63.7 °F 30.09 in West 0.6 mph 1 mph 98% 0.00 in 57 W/m2
06:49 64.4 °F 63.8 °F 30.09 in NW 2.8 mph 2 mph 98% 0.00 in 61 W/m2
06:54 64.6 °F 64 °F 30.10 in North 2.3 mph 3 mph 98% 0.00 in 63 W/m2
06:59 64.8 °F 64.2 °F 30.10 in NNE 1.3 mph 3 mph 98% 0.00 in 69 W/m2
07:04 64.9 °F 64.4 °F 30.10 in NNE 0.9 mph 2 mph 98% 0.00 in 82 W/m2
07:09 65 °F 64 °F 30.10 in North 0.1 mph 1 mph 96.3% 0.00 in 165 W/m2
07:14 65.1 °F 64 °F 30.10 in West 0.6 mph   96% 0.00 in 192 W/m2
07:19 65.2 °F 64 °F 30.10 in WNW 0.6 mph 1 mph 96% 0.00 in 194 W/m2
07:23 65.3 °F 64.1 °F 30.10 in WNW 0.7 mph 1 mph 96% 0.00 in 221 W/m2
07:29 65.6 °F 64.4 °F 30.10 in Calm   1 mph 96% 0.00 in 229 W/m2
07:34 65.8 °F 64.7 °F 30.10 in Calm     96% 0.00 in 247 W/m2
07:39 66 °F 64.8 °F 30.11 in Calm     96% 0.00 in 274 W/m2
07:43 66.2 °F 65 °F 30.11 in Calm     96% 0.00 in 274 W/m2
07:49 66.6 °F 65.4 °F 30.11 in SSW 2 mph 2 mph 95.9% 0.00 in 243 W/m2
07:54 67.1 °F 65.6 °F 30.10 in East 1.3 mph 2 mph 95% 0.00 in 203 W/m2
07:59 67.4 °F 65.9 °F 30.11 in NE 1.6 mph 2 mph 95% 0.00 in 121 W/m2
08:04 67.6 °F 66.1 °F 30.11 in Calm   2 mph 94.7% 0.00 in 132 W/m2
08:09 67.8 °F 66.1 °F 30.11 in Calm     94.4% 0.00 in 234 W/m2
08:14 67.9 °F 66.1 °F 30.11 in Calm     94% 0.00 in 185 W/m2
08:19 68.2 °F 66.4 °F 30.11 in North 0.8 mph 0.2 mph 94% 0.00 in 203 W/m2
08:24 68.5 °F 66.6 °F 30.11 in NNE 3.2 mph 2.2 mph 93.8% 0.00 in 212 W/m2
08:29 68.8 °F 66.7 °F 30.11 in NNE 2.5 mph 3 mph 93% 0.00 in 247 W/m2
08:34 69.3 °F 67.1 °F 30.11 in NNE 0.4 mph 3 mph 93% 0.00 in 299 W/m2
08:39 69.8 °F 67.1 °F 30.11 in North 0.6 mph 0.2 mph 91% 0.00 in 423 W/m2
08:44 70.3 °F 67.2 °F 30.11 in NNE 4.1 mph 2.9 mph 90% 0.00 in 487 W/m2
08:49 71.2 °F 68 °F 30.12 in NE 1.7 mph 5 mph 89.6% 0.00 in 545 W/m2
08:54 72.1 °F 68.3 °F 30.12 in ENE 3.4 mph 2 mph 87.8% 0.00 in 564 W/m2
08:59 72.7 °F 68.2 °F 30.12 in ENE 3.8 mph 5 mph 86% 0.00 in 566 W/m2
09:04 73.2 °F 68.9 °F 30.12 in ENE 3.5 mph 5 mph 86.5% 0.00 in 577 W/m2
09:09 74 °F 69.5 °F 30.12 in NNE 4.4 mph 4 mph 85.8% 0.00 in 576 W/m2
09:14 74.9 °F 69.6 °F 30.12 in NNE 6.5 mph 6 mph 83.8% 0.00 in 589 W/m2
09:19 75.4 °F 70 °F 30.12 in NNE 5.9 mph 8 mph 83.4% 0.00 in 603 W/m2
09:24 76 °F 69.9 °F 30.12 in NNE 7.4 mph 6 mph 81.5% 0.00 in 621 W/m2
09:29 76.4 °F 70 °F 30.11 in NNE 3.8 mph 8 mph 80.7% 0.00 in 630 W/m2
09:34 76.8 °F 70.4 °F 30.12 in NNE 5.1 mph 5.1 mph 80.6% 0.00 in 639 W/m2
09:39 77.4 °F 70.6 °F 30.11 in NNE 7.1 mph 8 mph 79.5% 0.00 in 653 W/m2
09:44 78.2 °F 71 °F 30.11 in NNE 7.5 mph 9 mph 78.8% 0.00 in 669 W/m2
09:49 78.6 °F 71.2 °F 30.11 in North 7.7 mph 9 mph 78.1% 0.00 in 682 W/m2
09:54 79.2 °F 71.3 °F 30.11 in North 9.6 mph 9 mph 77% 0.00 in 695 W/m2
09:59 79.8 °F 71.7 °F 30.11 in North 8.5 mph 12 mph 76.4% 0.00 in 709 W/m2
10:04 80.6 °F 72.1 °F 30.11 in NNE 8.9 mph 9 mph 75.4% 0.00 in 728 W/m2
10:09 81.3 °F 72.3 °F 30.10 in North 6.9 mph 10 mph 74.2% 0.00 in 741 W/m2
10:14 81.8 °F 72.4 °F 30.10 in North 10.6 mph 8 mph 73.2% 0.00 in 756 W/m2
10:19 82.1 °F 72.2 °F 30.10 in North 10.5 mph 12 mph 72% 0.00 in 763 W/m2
10:24 82.6 °F 72.2 °F 30.10 in North 10.5 mph 10 mph 70.8% 0.00 in 773 W/m2
10:29 83 °F 72.4 °F 30.10 in North 8.5 mph 13 mph 70.4% 0.00 in 774 W/m2
10:34 83.3 °F 71.9 °F 30.10 in North 11.4 mph 12 mph 68.6% 0.00 in 778 W/m2
10:39 83.3 °F 71.8 °F 30.10 in NNE 10.4 mph 12 mph 68.4% 0.00 in 801 W/m2
10:44 83.3 °F 72 °F 30.10 in NNE 12.1 mph 12 mph 68.8% 0.00 in 807 W/m2
10:49 83.7 °F 72.3 °F 30.09 in North 13 mph 7.8 mph 68.6% 0.00 in 593 W/m2
10:54 84.2 °F 72.5 °F 30.09 in North 12.5 mph 14 mph 68% 0.00 in 817 W/m2
10:59 84.6 °F 72.2 °F 30.09 in NNE 15 mph 14 mph 66.5% 0.00 in 839 W/m2
11:04 84.7 °F 72.6 °F 30.09 in NNE 12.2 mph 8.5 mph 67% 0.00 in 851 W/m2
11:09 85.4 °F 72.2 °F 30.09 in NNE 14.4 mph 13 mph 64.8% 0.00 in 847 W/m2
11:14 85.7 °F 72.2 °F 30.09 in North 11.6 mph 16 mph 64.2% 0.00 in 869 W/m2
11:19 86 °F 71.9 °F 30.09 in North 11.3 mph 13 mph 63% 0.00 in 873 W/m2
11:24 86.3 °F 72.2 °F 30.08 in North 11.1 mph 13 mph 63% 0.00 in 888 W/m2
11:29 86.8 °F 72.1 °F 30.08 in North 10.5 mph 7.6 mph 61.8% 0.00 in 897 W/m2
11:34 87.2 °F 71.9 °F 30.08 in North 12.2 mph 7.8 mph 60.6% 0.00 in 904 W/m2
11:39 87.5 °F 72.2 °F 30.08 in North 11.4 mph 14 mph 60.6% 0.00 in 905 W/m2
11:44 87.6 °F 71.5 °F 30.08 in North 11.5 mph 12 mph 59% 0.00 in 893 W/m2
11:49 87.6 °F 71.3 °F 30.08 in NNE 10.3 mph 15 mph 58.6% 0.00 in 918 W/m2
11:54 87.8 °F 71.3 °F 30.08 in North 9.8 mph 11 mph 58.2% 0.00 in 922 W/m2
11:55 79.5 °F 70.9 °F 30.11 in NNE 6 mph 12 mph 75% 0.00 in 695 W/m2
12:00 80.4 °F 72.5 °F 30.11 in NNE 5 mph 9 mph 77% 0.00 in 709 W/m2
12:05 81.1 °F 72.5 °F 30.10 in NNE 7 mph 10 mph 75% 0.00 in 728 W/m2
12:10 81.7 °F 72.2 °F 30.10 in North 3 mph 7 mph 73% 0.00 in 741 W/m2
12:15 82 °F 72.1 °F 30.10 in North 7 mph 12 mph 72% 0.00 in 756 W/m2
12:20 82.4 °F 72.5 °F 30.10 in North 6 mph 10 mph 72% 0.00 in 756 W/m2
12:25 82.8 °F 72 °F 30.10 in North 1 mph 12 mph 70% 0.00 in 773 W/m2
12:30 83.3 °F 72.1 °F 30.10 in North 5 mph 8 mph 69% 0.00 in 773 W/m2
12:39 88.5 °F 69.8 °F 30.10 in North 7.9 mph 12 mph 54.6% 0.00 in 778 W/m2
12:44 87.8 °F 70.6 °F 30.10 in North 7.2 mph 18 mph 57% 0.00 in 916 W/m2
12:49 88.5 °F 68.2 °F 30.06 in NNW 12.7 mph 7.6 mph 51.2% 0.00 in 824 W/m2
12:54 88 °F 68.3 °F 30.06 in NNW 9.4 mph 14 mph 52.4% 0.00 in 739 W/m2
12:59 87.8 °F 68.6 °F 30.06 in North 9.6 mph 10 mph 53% 0.00 in 974 W/m2
13:04 88.5 °F 68.1 °F 30.05 in North 12 mph 12 mph 51.1% 0.00 in 980 W/m2
13:09 89.1 °F 68.7 °F 30.05 in North 12.1 mph 14 mph 51.1% 0.00 in 957 W/m2
13:14 89.5 °F 68 °F 30.05 in NNW 8.8 mph 14 mph 49.5% 0.00 in 962 W/m2
13:19 89.6 °F 67.3 °F 30.05 in NNW 9.4 mph 10 mph 48% 0.00 in 930 W/m2
13:24 89.9 °F 68 °F 30.05 in North 9.5 mph 10 mph 48.8% 0.00 in 939 W/m2
13:29 90.2 °F 68 °F 30.05 in North 9.2 mph 6.3 mph 48.2% 0.00 in 452 W/m2
13:34 89.7 °F 67.5 °F 30.04 in NNE 7.1 mph 3.6 mph 48.2% 0.00 in 661 W/m2
13:39 89.4 °F 67.2 °F 30.04 in East 9.2 mph 9 mph 48.1% 0.00 in 924 W/m2
13:43 89.8 °F 67.3 °F 30.04 in East 10.3 mph 5.8 mph 47.8% 0.00 in 904 W/m2
13:49 90.1 °F 67.2 °F 30.04 in ENE 8 mph 11 mph 47.1% 0.00 in 884 W/m2
13:54 90.5 °F 66.4 °F 30.04 in NE 13 mph 6 mph 45.3% 0.00 in 885 W/m2
13:59 91 °F 66.4 °F 30.04 in ENE 9.3 mph 6.7 mph 44.4% 0.00 in 889 W/m2
14:03 91.2 °F 67.3 °F 30.04 in East 7.4 mph 10 mph 45.6% 0.00 in 877 W/m2
14:09 91.7 °F 67.5 °F 30.04 in ENE 7.3 mph 9 mph 45.3% 0.00 in 872 W/m2
14:14 91.9 °F 67.4 °F 30.04 in ENE 13.2 mph 10 mph 44.8% 0.00 in 866 W/m2
14:19 92 °F 68 °F 30.04 in ENE 9.3 mph 17 mph 45.5% 0.00 in 858 W/m2
14:24 92 °F 67.2 °F 30.04 in ENE 10 mph 5.4 mph 44.3% 0.00 in 850 W/m2
14:28 91.9 °F 67.9 °F 30.04 in ENE 8.4 mph 13 mph 45.7% 0.00 in 851 W/m2
14:34 91.9 °F 67.2 °F 30.03 in ENE 9.3 mph 11 mph 44.4% 0.00 in 860 W/m2
14:39 91.9 °F 66.6 °F 30.03 in ENE 8.6 mph 12 mph 43.6% 0.00 in 850 W/m2
14:44 92 °F 66.7 °F 30.03 in ENE 10.8 mph 12 mph 43.6% 0.00 in 840 W/m2
14:49 91.9 °F 66.2 °F 30.03 in ENE 9.5 mph 16 mph 43% 0.00 in 796 W/m2
14:54 91.7 °F 65.7 °F 30.03 in ENE 9.8 mph 12 mph 42.6% 0.00 in 781 W/m2
14:59 91.8 °F 66.2 °F 30.03 in ENE 11.3 mph 13 mph 43.2% 0.00 in 770 W/m2
15:04 91.9 °F 66.6 °F 30.03 in NE 9.4 mph 14 mph 43.5% 0.00 in 768 W/m2
15:09 92.2 °F 67.8 °F 30.03 in NNE 9.5 mph 12 mph 44.9% 0.00 in 747 W/m2
15:14 92.7 °F 66.9 °F 30.03 in North 9.2 mph 18 mph 43.1% 0.00 in 735 W/m2
15:19 92.4 °F 65.6 °F 30.03 in NE 7.8 mph 10 mph 41.4% 0.00 in 733 W/m2
15:24 92.6 °F 66.5 °F 30.03 in ENE 8.4 mph 8 mph 42.6% 0.00 in 713 W/m2
15:29 92.9 °F 67 °F 30.02 in NE 5.5 mph 10 mph 42.8% 0.00 in 691 W/m2
15:34 92.9 °F 66.4 °F 30.02 in NNE 5.4 mph 8 mph 41.9% 0.00 in 690 W/m2
15:39 92.6 °F 66.2 °F 30.02 in NE 10 mph 6 mph 42% 0.00 in 685 W/m2
15:44 92.4 °F 66 °F 30.02 in ENE 7.6 mph 14 mph 42% 0.00 in 672 W/m2
15:49 92.2 °F 66.3 °F 30.02 in ENE 9.9 mph 10 mph 42.7% 0.00 in 667 W/m2
15:54 92.5 °F 67.3 °F 30.02 in East 7.2 mph 12 mph 43.9% 0.00 in 646 W/m2
15:58 92.6 °F 67.5 °F 30.02 in NNE 8.7 mph 12 mph 44% 0.00 in 606 W/m2
16:04 92.3 °F 67.6 °F 30.01 in NNE 6.2 mph 10 mph 44.6% 0.00 in 645 W/m2
16:09 92.5 °F 67.4 °F 30.02 in NE 9.7 mph 10 mph 44% 0.00 in 639 W/m2
16:14 92.7 °F 67.9 °F 30.02 in NE 9.9 mph 12 mph 44.5% 0.00 in 635 W/m2
16:19 92.7 °F 68.3 °F 30.01 in NNE 6.9 mph 10 mph 45.1% 0.00 in 645 W/m2
16:24 92.8 °F 67.9 °F 30.01 in North 10.3 mph 8 mph 44.2% 0.00 in 609 W/m2
16:29 92.5 °F 66.6 °F 30.01 in NNE 10 mph 13 mph 42.8% 0.00 in 537 W/m2
16:34 92.1 °F 67 °F 30.01 in NNE 7.7 mph 12 mph 43.9% 0.00 in 527 W/m2
16:39 92.2 °F 67.2 °F 30.01 in NNE 8.4 mph 10 mph 44.1% 0.00 in 512 W/m2
16:44 92.5 °F 67.6 °F 30.01 in NNE 6 mph 13 mph 44.4% 0.00 in 489 W/m2
16:49 92.5 °F 67.4 °F 30.01 in North 8.1 mph 9 mph 44% 0.00 in 473 W/m2
16:54 92.3 °F 67.3 °F 30.01 in NNE 7.4 mph 9 mph 44.1% 0.00 in 460 W/m2
16:59 92.3 °F 67.4 °F 30.01 in NNE 8.7 mph 4.7 mph 44.2% 0.00 in 447 W/m2
17:04 92.2 °F 67.3 °F 30.01 in NNE 9.2 mph 10 mph 44.4% 0.00 in 430 W/m2
17:08 92.1 °F 67.1 °F 30.01 in North 8.3 mph 10 mph 44% 0.00 in 413 W/m2
17:14 91.9 °F 66.1 °F 30.01 in NNE 9.3 mph 12 mph 42.8% 0.00 in 395 W/m2
17:19 91.6 °F 66.1 °F 30.01 in NE 6.9 mph 10 mph 43.2% 0.00 in 372 W/m2
17:24 91.6 °F 66.5 °F 30.01 in NE 6.4 mph 8 mph 43.8% 0.00 in 345 W/m2
17:29 91.6 °F 66.7 °F 30.01 in NNE 7 mph 12 mph 44.2% 0.00 in 329 W/m2
17:34 91.6 °F 66.4 °F 30.01 in North 6.7 mph 8 mph 43.8% 0.00 in 311 W/m2
17:39 91.4 °F 66.2 °F 30.01 in NE 8 mph 9 mph 43.7% 0.00 in 290 W/m2
17:44 91.4 °F 66.4 °F 30.01 in NNE 4.4 mph 9 mph 44% 0.00 in 272 W/m2
17:49 91.4 °F 66 °F 30.01 in North 5.8 mph 6 mph 43.3% 0.00 in 256 W/m2
17:54 91.1 °F 64.3 °F 30.01 in NE 10.2 mph 7.4 mph 41.2% 0.00 in 235 W/m2
17:59 90.9 °F 63.2 °F 30.01 in NE 7.8 mph 12 mph 40% 0.00 in 218 W/m2
18:04 90.6 °F 62.9 °F 30.01 in ENE 9.1 mph 9 mph 39.9% 0.00 in 208 W/m2
18:09 90.2 °F 62.6 °F 30.01 in East 6.7 mph 12 mph 40% 0.00 in 190 W/m2
18:14 90.1 °F 62.8 °F 30.01 in East 6.7 mph 7 mph 40.3% 0.00 in 179 W/m2
18:19 90 °F 63.2 °F 30.01 in East 7 mph 7 mph 41.1% 0.00 in 167 W/m2
18:24 89.8 °F 63.4 °F 30.01 in East 7 mph 7 mph 41.7% 0.00 in 154 W/m2
18:29 89.7 °F 63.6 °F 30.01 in ENE 5.8 mph 8 mph 42% 0.00 in 139 W/m2
18:34 89.5 °F 63.6 °F 30.01 in NE 5.1 mph 8 mph 42.4% 0.00 in 126 W/m2
18:39 89.2 °F 63.3 °F 30.01 in NNE 4.6 mph 2.2 mph 42.3% 0.00 in 112 W/m2
18:44 89 °F 63.1 °F 30.01 in NE 4.8 mph 7 mph 42.3% 0.00 in 99 W/m2
18:49 88.7 °F 63.5 °F 30.01 in NE 3.7 mph 6 mph 43.3% 0.00 in 87 W/m2
18:54 88.4 °F 63.8 °F 30.01 in NE 2.8 mph 6 mph 44.1% 0.00 in 77 W/m2
18:59 87.9 °F 63.5 °F 30.01 in NW 2.9 mph 5 mph 44.3% 0.00 in 66 W/m2
19:04 87.5 °F 63.6 °F 30.01 in NW 4.5 mph 3 mph 45% 0.00 in 57 W/m2
19:09 87.2 °F 63.2 °F 30.01 in NW 4.1 mph 6 mph 45% 0.00 in 47 W/m2
19:14 86.8 °F 63.7 °F 30.01 in NW 1.9 mph 6 mph 46.3% 0.00 in 38 W/m2
19:19 86.5 °F 63.4 °F 30.01 in WNW 3.9 mph 2.5 mph 46.2% 0.00 in 30 W/m2
19:24 86.1 °F 62.4 °F 30.01 in NNW 3.8 mph 5 mph 45.2% 0.00 in 24 W/m2
19:29 85.7 °F 62.8 °F 30.02 in NNW 4 mph 5 mph 46.3% 0.00 in 17 W/m2
19:34 85.5 °F 62.9 °F 30.02 in North 4.9 mph 5 mph 46.9% 0.00 in 11 W/m2
19:39 85.2 °F 62.8 °F 30.02 in North 4.9 mph 6 mph 47.2% 0.00 in 8 W/m2
19:44 84.8 °F 62.6 °F 30.03 in North 5.4 mph 6 mph 47.4% 0.00 in 5 W/m2
19:49 84.5 °F 62.7 °F 30.03 in North 4.2 mph 6 mph 48.1% 0.00 in 3 W/m2
19:54 84.1 °F 62.3 °F 30.03 in NNW 5.7 mph 6 mph 48% 0.00 in 2 W/m2
19:59 83.8 °F 62 °F 30.03 in NNW 4.3 mph 8 mph 48% 0.00 in 1 W/m2
20:04 83.5 °F 61.7 °F 30.03 in North 5 mph 6 mph 48% 0.00 in 0 W/m2
20:09 83.3 °F 61.9 °F 30.03 in North 5.4 mph 6 mph 48.5% 0.00 in 0 W/m2
20:14 83 °F 62.1 °F 30.04 in North 3.9 mph 6 mph 49.3% 0.00 in 0 W/m2
20:15 82.9 °F 61.8 °F 30.04 in North 0.6 mph 5 mph 49% 0.00 in 0 W/m2
20:20 82.1 °F 62.7 °F 30.04 in East 2 mph 4 mph 52% 0.00 in 0 W/m2
20:25 81.2 °F 62.5 °F 30.04 in Calm   4 mph 53% 0.00 in 0 W/m2
20:30 80.5 °F 62.3 °F 30.04 in South 1 mph 3 mph 54% 0.00 in 0 W/m2
20:35 80 °F 61.8 °F 30.04 in Calm   3 mph 54% 0.00 in 0 W/m2
20:40 79.6 °F 62 °F 30.05 in Calm   2 mph 55% 0.00 in 0 W/m2
20:45 79.2 °F 61.6 °F 30.06 in WNW 2 mph 4 mph 55% 0.00 in 0 W/m2
20:50 78.6 °F 62.1 °F 30.06 in NNW 2 mph 7 mph 57% 0.00 in 0 W/m2
20:55 78.6 °F 62.1 °F 30.06 in SSW 2 mph 7 mph 57% 0.00 in 0 W/m2
21:00 78.4 °F 62.9 °F 30.06 in SSW 2 mph 4 mph 59% 0.00 in 0 W/m2
21:15 78.4 °F 62.9 °F 30.07 in SW 2 mph 4 mph 59% 0.00 in 0 W/m2
21:20 78.3 °F 63.2 °F 30.07 in West 2 mph 5 mph 60% 0.00 in 0 W/m2
21:30 78.3 °F 64.2 °F 30.07 in WNW 3 mph 8 mph 62% 0.00 in 0 W/m2
21:40 78.4 °F 64.3 °F 30.06 in NNW 6 mph 10 mph 62% 0.00 in 0 W/m2
21:45 78.6 °F 64.5 °F 30.06 in NNW 9 mph 13 mph 62% 0.00 in 0 W/m2
21:50 79 °F 63.9 °F 30.06 in NNW 5 mph 13 mph 60% 0.00 in 0 W/m2
21:55 79.2 °F 65 °F 30.06 in NNW 5 mph 10 mph 62% 0.00 in 0 W/m2
22:00 79 °F 64.8 °F 30.06 in North 5 mph 10 mph 62% 0.00 in 0 W/m2
22:10 77.4 °F 63.3 °F 30.07 in SSE 3 mph 7 mph 62% 0.00 in 0 W/m2
22:15 77.2 °F 63.2 °F 30.06 in SSW 2 mph 4 mph 62% 0.00 in 0 W/m2
22:20 77 °F 63.4 °F 30.06 in WNW 2 mph 5 mph 63% 0.00 in 0 W/m2
22:25 76.6 °F 63 °F 30.06 in West 2 mph 6 mph 63% 0.00 in 0 W/m2
22:35 74.9 °F 62.4 °F 30.06 in SSW 1 mph 5 mph 65% 0.00 in 0 W/m2
22:40 74.7 °F 62.1 °F 30.06 in SSW 1 mph 3 mph 65% 0.00 in 0 W/m2
22:45 74.2 °F 62.6 °F 30.06 in SSW 2 mph 4 mph 67% 0.00 in 0 W/m2
22:50 73.8 °F 62.1 °F 30.06 in South 2 mph 5 mph 67% 0.00 in 0 W/m2
22:55 73.4 °F 62.2 °F 30.06 in SSE 1 mph 4 mph 68% 0.00 in 0 W/m2
23:00 73.2 °F 62 °F 30.06 in Calm   3 mph 68% 0.00 in 0 W/m2
23:10 72.9 °F 62.1 °F 30.07 in Calm   2 mph 69% 0.00 in 0 W/m2
23:15 72.7 °F 61.9 °F 30.07 in Calm   2 mph 69% 0.00 in 0 W/m2
23:20 72.4 °F 62.1 °F 30.07 in SSW 1 mph 3 mph 70% 0.00 in 0 W/m2
23:25 72.2 °F 62.3 °F 30.07 in ESE 1 mph 2 mph 71% 0.00 in 0 W/m2
23:35 71.8 °F 62.3 °F 30.07 in WNW 1 mph 4 mph 72% 0.00 in 0 W/m2
23:40 71.6 °F 62.1 °F 30.07 in WNW 1 mph 3 mph 72% 0.00 in 0 W/m2
23:45 71.4 °F 62.3 °F 30.07 in NW 1 mph 2 mph 73% 0.00 in 0 W/m2
23:50 71.2 °F 62.1 °F 30.07 in Calm   3 mph 73% 0.00 in 0 W/m2
23:55 71 °F 61.9 °F 30.07 in Calm   3 mph 73% 0.00 in 0 W/m2
Knjazevac, Serbia
Compliments of Weather Underground - 2 mb